Fairview, Wyoming
Current Conditions -  °F | °C
As of 10:55 PM on Saturday 22 Nov 2014 (Local Time) from KAFO Reporting Station
Light Snow Light Snow  
Wind Chill: -5°   Ceiling: 600
Heat Index: -1°   Visibility: 1.7mi
Dew Point: -2°   Wind: 7mph
Humidity: 93%   Direction: 280°W
Pressure: 29.82"   Gusts: NA
Location:  42.69°N, 110.98°W
Report Text: KAFO 230555Z AUTO 28006KT 1 3/4SM -SN BKN006 BKN013 OVC025 M01/M02 A2982 RMK AO2
Loading
Personal Weather Stations






























Interactive Weather Map New forecast layout! Learn more

10-Day Weather Forecast

Advertisements
Track Severe Weather on mobile